createdAt,value
2022-11-10T00:00:17.944Z,3.35
2022-11-10T00:03:07.421Z,3.58
2022-11-10T00:05:55.820Z,4.28
2022-11-10T00:08:42.708Z,3.53
2022-11-10T00:11:29.895Z,3.70
2022-11-10T00:14:35.138Z,3.40
2022-11-10T00:17:22.401Z,3.35
2022-11-10T00:20:10.260Z,2.53
2022-11-10T00:22:57.228Z,3.63
2022-11-10T00:25:43.993Z,2.72
2022-11-10T00:28:32.097Z,2.20
2022-11-10T00:31:19.057Z,2.97
2022-11-10T00:34:07.360Z,2.30
2022-11-10T00:36:54.279Z,2.38
2022-11-10T00:39:40.925Z,2.38
2022-11-10T00:42:27.967Z,2.80
2022-11-10T00:45:15.012Z,2.42
2022-11-10T00:48:01.982Z,2.60
2022-11-10T00:50:48.959Z,2.40
2022-11-10T00:53:35.863Z,2.90
2022-11-10T00:56:24.321Z,3.13
2022-11-10T00:59:11.288Z,3.25
2022-11-10T01:01:58.385Z,2.65
2022-11-10T01:04:45.115Z,2.70
2022-11-10T01:07:32.565Z,3.08
2022-11-10T01:10:19.246Z,4.15
2022-11-10T01:13:06.411Z,3.40
2022-11-10T01:15:53.571Z,3.28
2022-11-10T01:18:41.885Z,3.70
2022-11-10T01:21:30.281Z,2.65
2022-11-10T01:24:21.861Z,3.60
2022-11-10T01:27:09.048Z,3.95
2022-11-10T01:29:55.842Z,4.13
2022-11-10T01:32:43.156Z,4.13
2022-11-10T01:35:30.490Z,3.10
2022-11-10T01:38:17.233Z,3.40
2022-11-10T01:41:06.117Z,4.05
2022-11-10T01:43:52.859Z,3.40
2022-11-10T01:46:39.798Z,3.28
2022-11-10T01:49:28.619Z,3.55
2022-11-10T01:52:15.602Z,3.60
2022-11-10T01:55:02.699Z,3.70
2022-11-10T01:57:50.547Z,4.13
2022-11-10T02:00:37.601Z,3.55
2022-11-10T02:03:39.408Z,4.20
2022-11-10T02:06:38.444Z,4.75
2022-11-10T02:09:26.433Z,4.00
2022-11-10T02:12:14.680Z,4.60
2022-11-10T02:15:01.567Z,4.32
2022-11-10T02:17:48.678Z,4.40
2022-11-10T02:20:35.589Z,5.15
2022-11-10T02:23:35.570Z,4.20
2022-11-10T02:26:25.188Z,4.32
2022-11-10T02:29:12.959Z,4.90
2022-11-10T02:31:59.754Z,4.80
2022-11-10T02:34:46.451Z,5.00
2022-11-10T02:37:33.723Z,5.60
2022-11-10T02:40:20.873Z,5.25
2022-11-10T02:43:11.740Z,5.15
2022-11-10T02:45:58.413Z,5.65
2022-11-10T02:48:45.311Z,5.20
2022-11-10T02:51:32.442Z,5.88
2022-11-10T02:54:19.737Z,6.20
2022-11-10T02:57:06.795Z,5.93
2022-11-10T02:59:54.006Z,6.30
2022-11-10T03:02:42.073Z,6.03
2022-11-10T03:05:32.531Z,6.80
2022-11-10T03:08:19.509Z,6.07
2022-11-10T03:11:06.551Z,7.05
2022-11-10T03:14:01.441Z,5.45
2022-11-10T03:16:49.421Z,6.43
2022-11-10T03:19:36.101Z,6.50
2022-11-10T03:22:22.923Z,5.45
2022-11-10T03:25:10.630Z,5.63
2022-11-10T03:27:57.477Z,5.40
2022-11-10T03:30:44.562Z,6.80
2022-11-10T03:33:31.588Z,5.88
2022-11-10T03:36:18.668Z,5.88
2022-11-10T03:39:05.309Z,6.03
2022-11-10T03:41:52.423Z,6.32
2022-11-10T03:44:39.554Z,5.95
2022-11-10T03:47:27.274Z,6.05
2022-11-10T03:50:15.954Z,6.72
2022-11-10T03:53:05.470Z,5.82
2022-11-10T03:55:53.878Z,5.88
2022-11-10T03:58:41.053Z,6.57
2022-11-10T04:01:27.972Z,5.22
2022-11-10T04:04:33.332Z,6.13
2022-11-10T04:07:38.603Z,5.72
2022-11-10T04:10:25.676Z,6.55
2022-11-10T04:13:31.143Z,6.22
2022-11-10T04:16:17.991Z,5.60
2022-11-10T04:19:04.794Z,6.38
2022-11-10T04:21:51.894Z,6.57
2022-11-10T04:24:38.776Z,6.97
2022-11-10T04:27:25.856Z,5.88
2022-11-10T04:30:12.877Z,5.63
2022-11-10T04:32:59.793Z,6.57
2022-11-10T04:35:46.835Z,6.18
2022-11-10T04:38:34.132Z,5.57
2022-11-10T04:41:22.117Z,5.40
2022-11-10T04:44:09.194Z,7.60
2022-11-10T04:46:56.233Z,6.18
2022-11-10T04:49:43.350Z,6.03
2022-11-10T04:52:30.121Z,5.80
2022-11-10T04:55:17.021Z,6.25
2022-11-10T04:58:04.698Z,6.35
2022-11-10T05:00:51.573Z,7.20
2022-11-10T05:03:38.668Z,7.30
2022-11-10T05:06:25.675Z,6.75
2022-11-10T05:09:12.783Z,7.82
2022-11-10T05:12:01.545Z,8.07
2022-11-10T05:14:48.496Z,7.57
2022-11-10T05:17:35.621Z,7.10
2022-11-10T05:20:24.797Z,7.95
2022-11-10T05:23:30.133Z,7.90
2022-11-10T05:26:18.550Z,7.75
2022-11-10T05:29:05.378Z,6.90
2022-11-10T05:31:52.376Z,8.43
2022-11-10T05:34:39.392Z,8.32
2022-11-10T05:37:26.371Z,7.43
2022-11-10T05:40:13.453Z,7.43
2022-11-10T05:43:01.026Z,7.93
2022-11-10T05:45:47.927Z,6.60
2022-11-10T05:48:34.820Z,7.88
2022-11-10T05:51:21.811Z,7.10
2022-11-10T05:54:08.990Z,7.00
2022-11-10T05:56:56.864Z,7.25
2022-11-10T05:59:44.035Z,7.82
2022-11-10T06:02:31.088Z,6.25
2022-11-10T06:05:18.172Z,7.93
2022-11-10T06:08:06.357Z,6.45
2022-11-10T06:10:54.774Z,6.25
2022-11-10T06:13:41.738Z,5.80
2022-11-10T06:16:28.898Z,6.50
2022-11-10T06:19:16.278Z,5.53
2022-11-10T06:22:07.491Z,6.00
2022-11-10T06:24:54.695Z,6.57
2022-11-10T06:27:44.918Z,5.78
2022-11-10T06:30:34.018Z,6.00
2022-11-10T06:33:21.236Z,5.43
2022-11-10T06:36:10.106Z,5.25
2022-11-10T06:38:57.878Z,6.10
2022-11-10T06:41:44.697Z,4.78
2022-11-10T06:44:31.801Z,6.30
2022-11-10T06:47:19.611Z,5.68
2022-11-10T06:50:09.448Z,6.00
2022-11-10T06:52:57.836Z,5.23
2022-11-10T06:55:44.892Z,5.40
2022-11-10T06:58:35.006Z,5.50
2022-11-10T07:01:26.774Z,6.13
2022-11-10T07:04:20.378Z,5.18
2022-11-10T07:07:08.591Z,5.63
2022-11-10T07:09:55.587Z,5.55
2022-11-10T07:12:43.004Z,4.68
2022-11-10T07:15:30.949Z,5.55
2022-11-10T07:18:18.134Z,5.22
2022-11-10T07:21:06.188Z,5.03
2022-11-10T07:23:52.905Z,4.78
2022-11-10T07:26:39.820Z,5.03
2022-11-10T07:29:26.829Z,6.55
2022-11-10T07:32:13.762Z,5.50
2022-11-10T07:35:05.339Z,5.65
2022-11-10T07:37:52.293Z,5.72
2022-11-10T07:40:39.664Z,7.03
2022-11-10T07:43:27.848Z,4.63
2022-11-10T07:46:14.786Z,6.50
2022-11-10T07:49:01.932Z,4.93
2022-11-10T07:51:48.722Z,5.78
2022-11-10T07:54:36.329Z,5.53
2022-11-10T07:57:23.718Z,4.93
2022-11-10T08:00:13.552Z,6.03
2022-11-10T08:03:10.103Z,5.95
2022-11-10T08:06:05.774Z,6.05
2022-11-10T08:08:52.520Z,5.93
2022-11-10T08:11:40.893Z,5.30
2022-11-10T08:14:27.582Z,4.72
2022-11-10T08:17:14.495Z,5.35
2022-11-10T08:20:01.641Z,5.40
2022-11-10T08:22:48.723Z,5.93
2022-11-10T08:25:37.152Z,5.57
2022-11-10T08:28:26.305Z,5.78
2022-11-10T08:31:12.804Z,6.25
2022-11-10T08:34:01.108Z,6.05
2022-11-10T08:36:48.191Z,6.13
2022-11-10T08:39:39.509Z,5.90
2022-11-10T08:42:26.837Z,5.55
2022-11-10T08:45:15.672Z,5.97
2022-11-10T08:48:09.842Z,5.28
2022-11-10T08:51:01.228Z,5.75
2022-11-10T08:53:48.326Z,5.97
2022-11-10T08:56:38.349Z,6.00
2022-11-10T08:59:26.395Z,5.65
2022-11-10T09:02:14.317Z,6.97
2022-11-10T09:05:01.825Z,5.93
2022-11-10T09:07:50.148Z,6.20
2022-11-10T09:10:40.280Z,6.32
2022-11-10T09:13:30.202Z,6.55
2022-11-10T09:16:18.028Z,5.30
2022-11-10T09:19:05.227Z,6.32
2022-11-10T09:21:52.136Z,5.07
2022-11-10T09:24:38.788Z,5.72
2022-11-10T09:27:25.862Z,5.80
2022-11-10T09:30:17.690Z,5.65
2022-11-10T09:33:05.236Z,5.50
2022-11-10T09:35:57.477Z,5.70
2022-11-10T09:38:43.994Z,4.68
2022-11-10T09:41:32.596Z,5.45
2022-11-10T09:44:36.536Z,5.03
2022-11-10T09:47:55.760Z,5.45
2022-11-10T09:50:47.731Z,5.10
2022-11-10T09:53:43.476Z,6.15
2022-11-10T09:56:39.797Z,4.90
2022-11-10T09:59:29.490Z,5.47
2022-11-10T10:02:25.593Z,4.15
2022-11-10T10:05:51.669Z,5.10
2022-11-10T10:08:57.992Z,4.38
2022-11-10T10:12:23.322Z,4.40
2022-11-10T10:15:25.349Z,4.75
2022-11-10T10:18:37.270Z,5.35
2022-11-10T10:21:40.408Z,6.25
2022-11-10T10:24:30.197Z,6.03
2022-11-10T10:27:23.010Z,5.80
2022-11-10T10:30:19.296Z,6.50
2022-11-10T10:33:21.068Z,7.80
2022-11-10T10:36:20.125Z,6.53
2022-11-10T10:39:14.758Z,6.40
2022-11-10T10:42:01.920Z,6.65
2022-11-10T10:45:27.421Z,6.47
2022-11-10T10:48:28.939Z,6.13
2022-11-10T10:51:30.272Z,5.68
2022-11-10T10:54:29.393Z,5.22
2022-11-10T10:57:19.441Z,5.35
2022-11-10T11:00:42.203Z,5.18
2022-11-10T11:03:34.905Z,3.95
2022-11-10T11:06:28.160Z,5.85
2022-11-10T11:09:27.164Z,4.60
2022-11-10T11:12:26.297Z,3.72
2022-11-10T11:15:21.030Z,4.93
2022-11-10T11:18:20.724Z,3.95
2022-11-10T11:21:29.927Z,4.95
2022-11-10T11:24:28.544Z,4.03
2022-11-10T11:27:43.321Z,4.32
2022-11-10T11:30:39.040Z,4.95
2022-11-10T11:33:36.073Z,4.00
2022-11-10T11:37:27.302Z,4.82
2022-11-10T11:40:32.955Z,4.03
2022-11-10T11:43:44.908Z,5.30
2022-11-10T11:46:31.659Z,5.78
2022-11-10T11:49:40.507Z,4.88
2022-11-10T11:52:42.401Z,5.80
2022-11-10T11:55:47.421Z,5.32
2022-11-10T11:59:12.719Z,4.28
2022-11-10T12:02:30.476Z,4.68
2022-11-10T12:05:59.559Z,4.80
2022-11-10T12:09:19.234Z,4.50
2022-11-10T12:12:27.956Z,5.32
2022-11-10T12:15:36.728Z,4.50
2022-11-10T12:18:43.559Z,5.07
2022-11-10T12:22:14.106Z,4.70
2022-11-10T12:25:01.317Z,4.45
2022-11-10T12:28:06.194Z,4.38
2022-11-10T12:31:01.751Z,4.40
2022-11-10T12:33:56.002Z,4.03
2022-11-10T12:36:44.406Z,3.60
2022-11-10T12:39:43.232Z,4.05
2022-11-10T12:42:31.285Z,4.13
2022-11-10T12:45:23.709Z,4.40
2022-11-10T12:48:16.241Z,4.00
2022-11-10T12:51:21.728Z,3.97
2022-11-10T12:54:16.618Z,4.32
2022-11-10T12:57:27.997Z,3.92
2022-11-10T13:00:26.833Z,4.72
2022-11-10T13:03:27.488Z,4.47
2022-11-10T13:06:24.653Z,3.50
2022-11-10T13:09:32.392Z,3.05
2022-11-10T13:12:21.973Z,3.50
2022-11-10T13:15:40.002Z,4.20
2022-11-10T13:18:30.331Z,3.78
2022-11-10T13:21:16.971Z,3.78
2022-11-10T13:24:05.476Z,3.78
2022-11-10T13:27:12.623Z,4.00
2022-11-10T13:30:01.228Z,4.05
2022-11-10T13:32:48.364Z,3.42
2022-11-10T13:35:38.778Z,2.63
2022-11-10T13:38:32.362Z,3.05
2022-11-10T13:41:25.822Z,3.35
2022-11-10T13:44:28.164Z,4.25
2022-11-10T13:47:34.953Z,3.22
2022-11-10T13:50:43.634Z,3.35
2022-11-10T13:53:36.574Z,3.78
2022-11-10T13:56:51.225Z,3.25
2022-11-10T14:00:00.733Z,3.63
2022-11-10T14:03:53.347Z,3.55
2022-11-10T14:06:44.015Z,2.97
2022-11-10T14:09:40.280Z,3.35
2022-11-10T14:12:59.068Z,2.78
2022-11-10T14:15:48.644Z,3.05
2022-11-10T14:18:46.814Z,2.97
2022-11-10T14:22:00.954Z,2.65
2022-11-10T14:25:04.635Z,3.55
2022-11-10T14:27:57.706Z,3.55
2022-11-10T14:30:55.033Z,3.92
2022-11-10T14:33:42.052Z,3.53
2022-11-10T14:36:29.477Z,3.13
2022-11-10T14:39:17.043Z,2.65
2022-11-10T14:42:05.831Z,3.35
2022-11-10T14:45:26.391Z,2.50
2022-11-10T14:48:19.899Z,3.28
2022-11-10T14:51:15.648Z,2.67
2022-11-10T14:54:03.002Z,3.25
2022-11-10T14:56:50.562Z,3.88
2022-11-10T14:59:37.821Z,3.70
2022-11-10T15:02:26.494Z,3.03
2022-11-10T15:05:15.788Z,2.92
2022-11-10T15:08:04.704Z,3.53
2022-11-10T15:10:59.413Z,2.63
2022-11-10T15:13:46.470Z,4.47
2022-11-10T15:16:36.612Z,3.65
2022-11-10T15:19:37.089Z,3.45
2022-11-10T15:22:29.646Z,3.65
2022-11-10T15:25:19.010Z,3.25
2022-11-10T15:28:21.792Z,3.35
2022-11-10T15:31:21.352Z,3.92
2022-11-10T15:34:41.737Z,3.15
2022-11-10T15:37:31.457Z,3.00
2022-11-10T15:40:34.145Z,3.53
2022-11-10T15:43:24.464Z,3.60
2022-11-10T15:46:22.135Z,3.47
2022-11-10T15:49:23.361Z,3.53
2022-11-10T15:52:13.779Z,3.30
2022-11-10T15:55:01.336Z,3.40
2022-11-10T15:57:48.538Z,3.08
2022-11-10T16:00:36.077Z,3.30
2022-11-10T16:03:23.562Z,2.72
2022-11-10T16:06:14.953Z,3.22
2022-11-10T16:09:01.756Z,3.40
2022-11-10T16:11:48.513Z,3.78
2022-11-10T16:14:36.265Z,2.72
2022-11-10T16:17:24.068Z,4.28
2022-11-10T16:20:17.324Z,4.32
2022-11-10T16:23:05.250Z,3.72
2022-11-10T16:25:54.847Z,3.05
2022-11-10T16:28:44.261Z,3.25
2022-11-10T16:31:32.890Z,3.10
2022-11-10T16:34:20.151Z,3.58
2022-11-10T16:37:10.196Z,3.05
2022-11-10T16:39:57.179Z,2.95
2022-11-10T16:42:44.589Z,3.38
2022-11-10T16:45:32.323Z,3.50
2022-11-10T16:48:26.744Z,3.25
2022-11-10T16:51:15.119Z,3.38
2022-11-10T16:54:02.356Z,3.15
2022-11-10T16:56:49.784Z,3.42
2022-11-10T16:59:36.749Z,3.70
2022-11-10T17:02:34.724Z,2.83
2022-11-10T17:05:21.875Z,3.47
2022-11-10T17:08:19.438Z,3.30
2022-11-10T17:11:07.832Z,3.35
2022-11-10T17:13:54.629Z,3.28
2022-11-10T17:16:45.330Z,3.10
2022-11-10T17:22:24.604Z,4.35
2022-11-10T17:25:23.662Z,4.30
2022-11-10T17:28:15.452Z,3.80
2022-11-10T17:31:05.814Z,3.55
2022-11-10T17:33:53.305Z,3.30
2022-11-10T17:36:40.629Z,3.40
2022-11-10T17:39:27.634Z,3.42
2022-11-10T17:42:14.666Z,3.38
2022-11-10T17:45:01.660Z,4.88
2022-11-10T17:47:49.760Z,3.20
2022-11-10T17:50:38.785Z,3.55
2022-11-10T17:53:28.335Z,3.28
2022-11-10T17:56:15.339Z,3.90
2022-11-10T17:59:02.045Z,3.03
2022-11-10T18:01:48.931Z,3.42
2022-11-10T18:04:36.640Z,3.03
2022-11-10T18:07:23.596Z,2.42
2022-11-10T18:10:27.048Z,2.85
2022-11-10T18:13:41.708Z,4.00
2022-11-10T18:16:38.563Z,4.10
2022-11-10T18:19:29.278Z,4.13
2022-11-10T18:25:15.642Z,3.92
2022-11-10T18:28:02.454Z,3.95
2022-11-10T18:30:49.432Z,4.10
2022-11-10T18:33:36.890Z,4.03
2022-11-10T18:36:23.789Z,2.38
2022-11-10T18:39:10.834Z,3.40
2022-11-10T18:41:57.536Z,3.28
2022-11-10T18:44:44.703Z,2.60
2022-11-10T18:47:31.820Z,3.35
2022-11-10T18:50:19.317Z,2.90
2022-11-10T18:53:06.331Z,2.47
2022-11-10T18:55:54.993Z,2.97
2022-11-10T18:58:42.217Z,3.05
2022-11-10T19:01:29.353Z,2.80
2022-11-10T19:04:16.275Z,2.08
2022-11-10T19:07:03.637Z,2.35
2022-11-10T19:09:51.212Z,2.97
2022-11-10T19:12:38.371Z,3.42
2022-11-10T19:15:25.818Z,2.35
2022-11-10T19:18:13.002Z,2.60
2022-11-10T19:21:07.771Z,3.30
2022-11-10T19:23:56.928Z,2.95
2022-11-10T19:26:46.018Z,1.98
2022-11-10T19:29:33.283Z,2.15
2022-11-10T19:32:24.665Z,2.55
2022-11-10T19:35:14.419Z,3.08
2022-11-10T19:38:01.337Z,2.97
2022-11-10T19:40:53.165Z,2.72
2022-11-10T19:43:47.276Z,3.45
2022-11-10T19:46:36.977Z,3.00
2022-11-10T19:49:25.715Z,2.72
2022-11-10T19:52:18.402Z,2.92
2022-11-10T19:55:05.925Z,3.45
2022-11-10T19:57:55.236Z,2.30
2022-11-10T20:00:47.626Z,3.10
2022-11-10T20:03:35.864Z,2.58
2022-11-10T20:06:23.453Z,2.55
2022-11-10T20:09:17.146Z,2.83
2022-11-10T20:12:08.272Z,2.70
2022-11-10T20:14:55.617Z,3.30
2022-11-10T20:17:42.473Z,3.28
2022-11-10T20:20:33.987Z,3.03
2022-11-10T20:23:21.532Z,2.20
2022-11-10T20:26:11.005Z,2.65
2022-11-10T20:28:57.936Z,2.10
2022-11-10T20:31:45.816Z,2.35
2022-11-10T20:34:32.952Z,2.60
2022-11-10T20:37:20.494Z,2.75
2022-11-10T20:40:37.621Z,2.40
2022-11-10T20:43:14.987Z,2.90
2022-11-10T20:46:02.382Z,2.40
2022-11-10T20:48:52.164Z,2.38
2022-11-10T20:51:40.419Z,2.20
2022-11-10T20:54:27.737Z,2.80
2022-11-10T20:57:14.977Z,2.70
2022-11-10T21:00:02.097Z,2.42
2022-11-10T21:02:49.358Z,2.45
2022-11-10T21:05:36.167Z,2.65
2022-11-10T21:08:25.845Z,2.40
2022-11-10T21:11:32.886Z,2.13
2022-11-10T21:14:25.095Z,2.60
2022-11-10T21:17:12.001Z,2.40
2022-11-10T21:19:59.289Z,2.35
2022-11-10T21:22:46.366Z,2.33
2022-11-10T21:25:33.288Z,2.53
2022-11-10T21:28:21.555Z,3.03
2022-11-10T21:31:09.473Z,2.30
2022-11-10T21:33:57.864Z,2.85
2022-11-10T21:36:44.772Z,2.67
2022-11-10T21:39:32.251Z,2.97
2022-11-10T21:42:21.773Z,3.03
2022-11-10T21:45:11.309Z,2.72
2022-11-10T21:48:05.125Z,2.97
2022-11-10T21:50:51.925Z,3.35
2022-11-10T21:53:47.689Z,2.60
2022-11-10T21:56:34.711Z,2.72
2022-11-10T21:59:23.595Z,2.55
2022-11-10T22:02:10.751Z,3.33
2022-11-10T22:05:00.291Z,2.63
2022-11-10T22:07:47.507Z,2.45
2022-11-10T22:10:53.653Z,3.00
2022-11-10T22:13:59.572Z,3.40
2022-11-10T22:17:07.724Z,2.88
2022-11-10T22:19:57.089Z,3.30
2022-11-10T22:22:44.351Z,3.00
2022-11-10T22:25:38.630Z,3.05
2022-11-10T22:28:26.098Z,3.13
2022-11-10T22:31:14.165Z,3.60
2022-11-10T22:34:01.301Z,3.22
2022-11-10T22:36:52.487Z,4.28
2022-11-10T22:39:57.634Z,2.95
2022-11-10T22:43:05.616Z,3.35
2022-11-10T22:45:52.656Z,3.65
2022-11-10T22:48:39.464Z,3.95
2022-11-10T22:51:28.325Z,3.45
2022-11-10T22:54:18.082Z,3.38
2022-11-10T22:57:05.377Z,2.90
2022-11-10T22:59:51.962Z,3.47
2022-11-10T23:02:38.990Z,3.47
2022-11-10T23:05:27.754Z,3.47
2022-11-10T23:08:14.465Z,3.15
2022-11-10T23:11:06.633Z,3.17
2022-11-10T23:13:53.717Z,3.92
2022-11-10T23:16:47.362Z,3.42
2022-11-10T23:19:34.336Z,3.60
2022-11-10T23:22:20.946Z,3.90
2022-11-10T23:25:07.996Z,3.38
2022-11-10T23:27:56.405Z,3.72
2022-11-10T23:30:43.333Z,3.80
2022-11-10T23:33:32.759Z,4.47
2022-11-10T23:36:22.595Z,4.25
2022-11-10T23:39:09.386Z,3.25
2022-11-10T23:41:56.153Z,4.43
2022-11-10T23:44:42.764Z,3.95
2022-11-10T23:47:30.075Z,3.85
2022-11-10T23:50:17.070Z,5.38
2022-11-10T23:53:03.742Z,5.65
2022-11-10T23:56:05.680Z,5.05
2022-11-10T23:58:52.229Z,4.60
